sensor_id;sensor_type;location;lat;lon;timestamp;pressure;altitude;pressure_sealevel;temperature;humidity
59407;BME280;45208;32.616;-115.472;2022-10-13T00:00:25;101182.94;;;62.55;1.00
59407;BME280;45208;32.616;-115.472;2022-10-13T00:02:52;101183.53;;;63.78;0.77
59407;BME280;45208;32.616;-115.472;2022-10-13T00:05:18;101178.69;;;62.77;0.84
59407;BME280;45208;32.616;-115.472;2022-10-13T00:07:45;101174.19;;;61.12;1.68
59407;BME280;45208;32.616;-115.472;2022-10-13T00:10:11;101184.25;;;58.59;2.50
59407;BME280;45208;32.616;-115.472;2022-10-13T00:12:37;101177.38;;;57.31;3.08
59407;BME280;45208;32.616;-115.472;2022-10-13T00:15:07;101179.72;;;57.17;4.01
59407;BME280;45208;32.616;-115.472;2022-10-13T00:17:33;101178.13;;;56.26;4.06
59407;BME280;45208;32.616;-115.472;2022-10-13T00:20:01;101180.31;;;55.48;3.89
59407;BME280;45208;32.616;-115.472;2022-10-13T00:22:28;101170.03;;;56.04;3.86
59407;BME280;45208;32.616;-115.472;2022-10-13T00:24:54;101175.88;;;55.05;4.10
59407;BME280;45208;32.616;-115.472;2022-10-13T00:27:20;101179.66;;;54.45;4.47
59407;BME280;45208;32.616;-115.472;2022-10-13T00:29:46;101181.72;;;54.11;4.96
59407;BME280;45208;32.616;-115.472;2022-10-13T00:32:13;101171.22;;;55.80;4.34
59407;BME280;45208;32.616;-115.472;2022-10-13T00:34:39;101177.16;;;54.97;4.91
59407;BME280;45208;32.616;-115.472;2022-10-13T00:37:05;101176.47;;;56.10;4.31
59407;BME280;45208;32.616;-115.472;2022-10-13T00:39:32;101183.81;;;55.26;4.61
59407;BME280;45208;32.616;-115.472;2022-10-13T00:41:58;101183.63;;;54.69;4.71
59407;BME280;45208;32.616;-115.472;2022-10-13T00:49:58;101181.47;;;53.56;5.13
59407;BME280;45208;32.616;-115.472;2022-10-13T00:52:25;101174.09;;;53.81;5.45
59407;BME280;45208;32.616;-115.472;2022-10-13T00:54:52;101185.06;;;53.17;5.29
59407;BME280;45208;32.616;-115.472;2022-10-13T00:57:20;101179.31;;;53.11;5.14
59407;BME280;45208;32.616;-115.472;2022-10-13T00:59:47;101176.38;;;52.60;6.17
59407;BME280;45208;32.616;-115.472;2022-10-13T01:02:13;101183.69;;;52.05;6.28
59407;BME280;45208;32.616;-115.472;2022-10-13T01:04:41;101180.47;;;52.51;5.52
59407;BME280;45208;32.616;-115.472;2022-10-13T01:07:10;101191.63;;;52.66;5.42
59407;BME280;45208;32.616;-115.472;2022-10-13T01:09:36;101176.25;;;52.71;5.53
59407;BME280;45208;32.616;-115.472;2022-10-13T01:15:11;101194.28;;;52.45;5.86
59407;BME280;45208;32.616;-115.472;2022-10-13T01:20:10;101186.88;;;52.25;6.42
59407;BME280;45208;32.616;-115.472;2022-10-13T01:23:05;101185.69;;;52.15;5.71
59407;BME280;45208;32.616;-115.472;2022-10-13T01:25:47;101187.97;;;51.98;5.95
59407;BME280;45208;32.616;-115.472;2022-10-13T01:28:22;101197.91;;;51.84;6.00
59407;BME280;45208;32.616;-115.472;2022-10-13T01:31:14;101198.81;;;51.73;6.06
59407;BME280;45208;32.616;-115.472;2022-10-13T01:34:17;101203.44;;;51.57;6.37
59407;BME280;45208;32.616;-115.472;2022-10-13T01:39:18;101197.72;;;51.46;6.34
59407;BME280;45208;32.616;-115.472;2022-10-13T01:41:49;101209.69;;;51.37;6.07
59407;BME280;45208;32.616;-115.472;2022-10-13T01:44:20;101203.22;;;51.20;6.59
59407;BME280;45208;32.616;-115.472;2022-10-13T01:46:51;101208.31;;;51.08;6.75
59407;BME280;45208;32.616;-115.472;2022-10-13T01:49:19;101219.16;;;50.96;6.87
59407;BME280;45208;32.616;-115.472;2022-10-13T01:51:47;101216.09;;;50.83;6.95
59407;BME280;45208;32.616;-115.472;2022-10-13T01:54:14;101217.16;;;50.80;7.36
59407;BME280;45208;32.616;-115.472;2022-10-13T01:56:41;101222.94;;;50.80;6.75
59407;BME280;45208;32.616;-115.472;2022-10-13T01:59:08;101225.13;;;50.68;6.53
59407;BME280;45208;32.616;-115.472;2022-10-13T02:12:19;101239.19;;;50.42;7.61
59407;BME280;45208;32.616;-115.472;2022-10-13T02:14:50;101240.25;;;50.39;7.70
59407;BME280;45208;32.616;-115.472;2022-10-13T02:17:19;101244.75;;;50.34;7.55
59407;BME280;45208;32.616;-115.472;2022-10-13T02:19:45;101242.09;;;50.25;7.56
59407;BME280;45208;32.616;-115.472;2022-10-13T02:22:12;101241.88;;;50.17;7.96
59407;BME280;45208;32.616;-115.472;2022-10-13T02:24:39;101250.59;;;50.12;7.33
59407;BME280;45208;32.616;-115.472;2022-10-13T02:27:06;101250.06;;;50.08;7.93
59407;BME280;45208;32.616;-115.472;2022-10-13T02:29:33;101251.38;;;50.01;7.43
59407;BME280;45208;32.616;-115.472;2022-10-13T02:31:59;101247.19;;;50.02;7.65
59407;BME280;45208;32.616;-115.472;2022-10-13T02:34:25;101249.81;;;50.00;7.89
59407;BME280;45208;32.616;-115.472;2022-10-13T02:36:52;101243.78;;;49.93;7.70
59407;BME280;45208;32.616;-115.472;2022-10-13T02:39:18;101245.34;;;49.94;8.11
59407;BME280;45208;32.616;-115.472;2022-10-13T02:41:44;101256.91;;;49.88;8.10
59407;BME280;45208;32.616;-115.472;2022-10-13T02:44:11;101257.44;;;49.86;7.86
59407;BME280;45208;32.616;-115.472;2022-10-13T02:46:40;101258.50;;;49.83;8.17
59407;BME280;45208;32.616;-115.472;2022-10-13T02:49:06;101258.25;;;49.81;8.31
59407;BME280;45208;32.616;-115.472;2022-10-13T02:51:32;101259.56;;;49.80;8.06
59407;BME280;45208;32.616;-115.472;2022-10-13T02:53:59;101263.50;;;49.77;8.06
59407;BME280;45208;32.616;-115.472;2022-10-13T02:56:25;101268.22;;;49.69;7.92
59407;BME280;45208;32.616;-115.472;2022-10-13T02:58:51;101260.59;;;49.72;8.47
59407;BME280;45208;32.616;-115.472;2022-10-13T03:01:17;101266.13;;;49.70;7.97
59407;BME280;45208;32.616;-115.472;2022-10-13T03:03:43;101263.22;;;49.64;8.67
59407;BME280;45208;32.616;-115.472;2022-10-13T03:06:10;101262.69;;;49.60;8.28
59407;BME280;45208;32.616;-115.472;2022-10-13T03:08:36;101267.09;;;49.16;9.14
59407;BME280;45208;32.616;-115.472;2022-10-13T03:11:03;101266.88;;;49.37;8.38
59407;BME280;45208;32.616;-115.472;2022-10-13T03:13:29;101273.44;;;49.31;8.55
59407;BME280;45208;32.616;-115.472;2022-10-13T03:16:01;101275.31;;;49.46;8.53
59407;BME280;45208;32.616;-115.472;2022-10-13T03:18:28;101277.41;;;49.40;8.81
59407;BME280;45208;32.616;-115.472;2022-10-13T03:20:57;101272.09;;;49.16;8.82
59407;BME280;45208;32.616;-115.472;2022-10-13T03:23:25;101288.41;;;49.24;8.62
59407;BME280;45208;32.616;-115.472;2022-10-13T03:25:51;101279.19;;;49.20;8.50
59407;BME280;45208;32.616;-115.472;2022-10-13T03:28:17;101275.00;;;49.21;8.42
59407;BME280;45208;32.616;-115.472;2022-10-13T03:30:44;101271.06;;;49.24;8.22
59407;BME280;45208;32.616;-115.472;2022-10-13T03:33:11;101279.44;;;49.11;8.61
59407;BME280;45208;32.616;-115.472;2022-10-13T03:35:37;101288.09;;;49.11;8.66
59407;BME280;45208;32.616;-115.472;2022-10-13T03:38:03;101275.50;;;49.09;8.80
59407;BME280;45208;32.616;-115.472;2022-10-13T03:40:31;101282.06;;;49.04;8.77
59407;BME280;45208;32.616;-115.472;2022-10-13T03:42:58;101275.22;;;49.01;8.96
59407;BME280;45208;32.616;-115.472;2022-10-13T03:45:24;101277.00;;;48.93;9.26
59407;BME280;45208;32.616;-115.472;2022-10-13T03:47:50;101281.19;;;48.86;9.01
59407;BME280;45208;32.616;-115.472;2022-10-13T03:50:17;101284.03;;;48.69;9.33
59407;BME280;45208;32.616;-115.472;2022-10-13T03:52:43;101279.03;;;48.70;8.88
59407;BME280;45208;32.616;-115.472;2022-10-13T03:55:09;101277.16;;;48.61;9.33
59407;BME280;45208;32.616;-115.472;2022-10-13T03:57:35;101281.88;;;48.64;9.16
59407;BME280;45208;32.616;-115.472;2022-10-13T04:00:02;101284.97;;;48.55;9.45
59407;BME280;45208;32.616;-115.472;2022-10-13T04:02:38;101289.44;;;48.51;9.48
59407;BME280;45208;32.616;-115.472;2022-10-13T04:05:04;101288.22;;;48.68;9.48
59407;BME280;45208;32.616;-115.472;2022-10-13T04:07:30;101287.97;;;48.29;9.50
59407;BME280;45208;32.616;-115.472;2022-10-13T04:09:57;101288.63;;;48.50;9.51
59407;BME280;45208;32.616;-115.472;2022-10-13T04:12:23;101280.53;;;48.54;9.20
59407;BME280;45208;32.616;-115.472;2022-10-13T04:14:49;101284.91;;;48.38;9.49
59407;BME280;45208;32.616;-115.472;2022-10-13T04:17:15;101286.69;;;48.30;9.26
59407;BME280;45208;32.616;-115.472;2022-10-13T04:19:43;101286.75;;;48.41;9.82
59407;BME280;45208;32.616;-115.472;2022-10-13T04:22:09;101288.59;;;48.44;9.31
59407;BME280;45208;32.616;-115.472;2022-10-13T04:24:36;101282.22;;;48.29;9.66
59407;BME280;45208;32.616;-115.472;2022-10-13T04:27:02;101287.44;;;48.25;9.51
59407;BME280;45208;32.616;-115.472;2022-10-13T04:29:29;101287.38;;;48.20;9.42
59407;BME280;45208;32.616;-115.472;2022-10-13T04:31:55;101282.56;;;47.74;10.20
59407;BME280;45208;32.616;-115.472;2022-10-13T04:34:23;101285.59;;;47.91;9.65
59407;BME280;45208;32.616;-115.472;2022-10-13T04:36:50;101297.09;;;47.85;9.98
59407;BME280;45208;32.616;-115.472;2022-10-13T04:39:16;101289.28;;;47.91;9.77
59407;BME280;45208;32.616;-115.472;2022-10-13T04:41:44;101289.56;;;47.93;9.76
59407;BME280;45208;32.616;-115.472;2022-10-13T04:44:10;101292.94;;;47.86;9.87
59407;BME280;45208;32.616;-115.472;2022-10-13T04:46:37;101286.34;;;47.85;9.71
59407;BME280;45208;32.616;-115.472;2022-10-13T04:49:03;101298.00;;;47.19;10.46
59407;BME280;45208;32.616;-115.472;2022-10-13T04:51:30;101311.47;;;46.46;10.53
59407;BME280;45208;32.616;-115.472;2022-10-13T04:53:57;101306.03;;;46.89;10.33
59407;BME280;45208;32.616;-115.472;2022-10-13T04:56:24;101303.66;;;47.34;10.35
59407;BME280;45208;32.616;-115.472;2022-10-13T04:58:50;101298.69;;;47.34;10.12
59407;BME280;45208;32.616;-115.472;2022-10-13T05:01:18;101296.38;;;47.38;10.21
59407;BME280;45208;32.616;-115.472;2022-10-13T05:03:45;101287.53;;;47.42;9.87
59407;BME280;45208;32.616;-115.472;2022-10-13T05:06:24;101291.91;;;47.37;10.13
59407;BME280;45208;32.616;-115.472;2022-10-13T05:08:54;101299.09;;;47.47;10.06
59407;BME280;45208;32.616;-115.472;2022-10-13T05:11:21;101297.75;;;46.96;10.06
59407;BME280;45208;32.616;-115.472;2022-10-13T05:13:47;101296.69;;;47.40;9.75
59407;BME280;45208;32.616;-115.472;2022-10-13T05:16:14;101293.97;;;47.31;10.29
59407;BME280;45208;32.616;-115.472;2022-10-13T05:18:41;101298.28;;;47.21;10.17
59407;BME280;45208;32.616;-115.472;2022-10-13T05:21:08;101302.31;;;47.29;10.30
59407;BME280;45208;32.616;-115.472;2022-10-13T05:23:36;101291.59;;;47.30;10.49
59407;BME280;45208;32.616;-115.472;2022-10-13T05:26:03;101304.38;;;47.23;10.10
59407;BME280;45208;32.616;-115.472;2022-10-13T05:28:29;101299.88;;;47.22;10.15
59407;BME280;45208;32.616;-115.472;2022-10-13T05:30:56;101305.94;;;47.04;10.16
59407;BME280;45208;32.616;-115.472;2022-10-13T05:33:22;101302.69;;;47.16;10.50
59407;BME280;45208;32.616;-115.472;2022-10-13T05:35:48;101310.78;;;47.38;10.02
59407;BME280;45208;32.616;-115.472;2022-10-13T05:38:14;101302.44;;;47.40;10.38
59407;BME280;45208;32.616;-115.472;2022-10-13T05:40:41;101302.22;;;47.44;10.13
59407;BME280;45208;32.616;-115.472;2022-10-13T05:43:07;101303.63;;;47.28;10.72
59407;BME280;45208;32.616;-115.472;2022-10-13T05:45:33;101302.94;;;46.92;10.94
59407;BME280;45208;32.616;-115.472;2022-10-13T05:47:59;101317.03;;;46.70;11.25
59407;BME280;45208;32.616;-115.472;2022-10-13T05:50:26;101300.88;;;46.02;11.20
59407;BME280;45208;32.616;-115.472;2022-10-13T05:52:53;101310.38;;;46.44;11.37
59407;BME280;45208;32.616;-115.472;2022-10-13T05:55:19;101309.66;;;46.49;11.38
59407;BME280;45208;32.616;-115.472;2022-10-13T05:57:47;101297.31;;;46.63;11.14
59407;BME280;45208;32.616;-115.472;2022-10-13T06:00:15;101300.53;;;46.15;11.30
59407;BME280;45208;32.616;-115.472;2022-10-13T06:02:47;101307.50;;;46.64;11.40
59407;BME280;45208;32.616;-115.472;2022-10-13T06:05:15;101308.28;;;46.44;11.41
59407;BME280;45208;32.616;-115.472;2022-10-13T06:07:42;101303.59;;;46.82;10.85
59407;BME280;45208;32.616;-115.472;2022-10-13T06:10:09;101303.06;;;46.63;11.30
59407;BME280;45208;32.616;-115.472;2022-10-13T06:12:36;101302.16;;;46.92;11.01
59407;BME280;45208;32.616;-115.472;2022-10-13T06:15:03;101299.84;;;46.96;11.09
59407;BME280;45208;32.616;-115.472;2022-10-13T06:17:29;101296.44;;;47.18;10.82
59407;BME280;45208;32.616;-115.472;2022-10-13T06:19:55;101301.03;;;47.30;10.91
59407;BME280;45208;32.616;-115.472;2022-10-13T06:22:21;101294.50;;;47.35;10.48
59407;BME280;45208;32.616;-115.472;2022-10-13T06:24:48;101305.34;;;47.20;10.51
59407;BME280;45208;32.616;-115.472;2022-10-13T06:27:14;101300.34;;;47.15;10.66
59407;BME280;45208;32.616;-115.472;2022-10-13T06:29:40;101309.75;;;46.95;11.21
59407;BME280;45208;32.616;-115.472;2022-10-13T06:32:07;101310.00;;;46.91;11.23
59407;BME280;45208;32.616;-115.472;2022-10-13T06:34:33;101301.59;;;46.88;11.26
59407;BME280;45208;32.616;-115.472;2022-10-13T06:36:59;101306.66;;;46.58;11.09
59407;BME280;45208;32.616;-115.472;2022-10-13T06:39:26;101305.03;;;45.72;12.29
59407;BME280;45208;32.616;-115.472;2022-10-13T06:41:52;101298.78;;;45.73;11.68
59407;BME280;45208;32.616;-115.472;2022-10-13T06:44:29;101293.72;;;45.39;12.43
59407;BME280;45208;32.616;-115.472;2022-10-13T06:47:00;101299.50;;;45.68;12.27
59407;BME280;45208;32.616;-115.472;2022-10-13T06:49:27;101293.81;;;45.59;12.20
59407;BME280;45208;32.616;-115.472;2022-10-13T06:51:54;101289.06;;;45.86;11.97
59407;BME280;45208;32.616;-115.472;2022-10-13T06:54:20;101289.19;;;45.62;11.67
59407;BME280;45208;32.616;-115.472;2022-10-13T06:56:46;101286.78;;;45.31;12.50
59407;BME280;45208;32.616;-115.472;2022-10-13T06:59:13;101282.50;;;46.00;11.40
59407;BME280;45208;32.616;-115.472;2022-10-13T07:01:42;101284.66;;;46.55;10.98
59407;BME280;45208;32.616;-115.472;2022-10-13T07:04:11;101284.78;;;46.11;11.63
59407;BME280;45208;32.616;-115.472;2022-10-13T07:06:37;101283.91;;;45.90;11.71
59407;BME280;45208;32.616;-115.472;2022-10-13T07:09:04;101281.06;;;46.40;11.29
59407;BME280;45208;32.616;-115.472;2022-10-13T07:11:31;101285.50;;;45.91;11.33
59407;BME280;45208;32.616;-115.472;2022-10-13T07:13:58;101279.66;;;45.26;12.02
59407;BME280;45208;32.616;-115.472;2022-10-13T07:16:24;101287.59;;;45.75;11.56
59407;BME280;45208;32.616;-115.472;2022-10-13T07:18:50;101275.09;;;45.78;11.49
59407;BME280;45208;32.616;-115.472;2022-10-13T07:21:16;101282.81;;;45.58;11.53
59407;BME280;45208;32.616;-115.472;2022-10-13T07:23:43;101271.03;;;45.41;12.39
59407;BME280;45208;32.616;-115.472;2022-10-13T07:26:10;101276.28;;;45.87;11.86
59407;BME280;45208;32.616;-115.472;2022-10-13T07:28:37;101276.91;;;45.32;12.40
59407;BME280;45208;32.616;-115.472;2022-10-13T07:31:10;101275.88;;;45.94;11.35
59407;BME280;45208;32.616;-115.472;2022-10-13T07:33:39;101271.91;;;46.06;11.67
59407;BME280;45208;32.616;-115.472;2022-10-13T07:36:05;101268.06;;;46.29;11.56
59407;BME280;45208;32.616;-115.472;2022-10-13T07:38:32;101265.94;;;46.45;10.85
59407;BME280;45208;32.616;-115.472;2022-10-13T07:41:01;101274.03;;;45.76;11.85
59407;BME280;45208;32.616;-115.472;2022-10-13T07:43:28;101273.72;;;45.89;11.37
59407;BME280;45208;32.616;-115.472;2022-10-13T07:45:54;101262.94;;;44.38;12.80
59407;BME280;45208;32.616;-115.472;2022-10-13T07:48:24;101264.34;;;44.67;12.76
59407;BME280;45208;32.616;-115.472;2022-10-13T07:50:50;101266.09;;;44.88;12.46
59407;BME280;45208;32.616;-115.472;2022-10-13T07:53:16;101263.44;;;44.60;12.26
59407;BME280;45208;32.616;-115.472;2022-10-13T07:55:43;101259.41;;;44.91;12.27
59407;BME280;45208;32.616;-115.472;2022-10-13T07:58:09;101259.41;;;44.91;12.35
59407;BME280;45208;32.616;-115.472;2022-10-13T08:00:35;101253.28;;;45.13;11.96
59407;BME280;45208;32.616;-115.472;2022-10-13T08:03:02;101250.38;;;45.66;10.83
59407;BME280;45208;32.616;-115.472;2022-10-13T08:05:28;101251.16;;;45.82;10.95
59407;BME280;45208;32.616;-115.472;2022-10-13T08:07:54;101247.41;;;45.46;11.11
59407;BME280;45208;32.616;-115.472;2022-10-13T08:10:20;101250.94;;;45.41;11.20
59407;BME280;45208;32.616;-115.472;2022-10-13T08:12:47;101251.97;;;45.67;11.50
59407;BME280;45208;32.616;-115.472;2022-10-13T08:15:13;101251.97;;;45.67;11.50
59407;BME280;45208;32.616;-115.472;2022-10-13T08:17:39;101254.28;;;45.98;10.89
59407;BME280;45208;32.616;-115.472;2022-10-13T08:20:06;101250.28;;;46.11;11.26
59407;BME280;45208;32.616;-115.472;2022-10-13T08:22:32;101241.91;;;45.77;11.48
59407;BME280;45208;32.616;-115.472;2022-10-13T08:24:59;101247.97;;;45.80;11.21
59407;BME280;45208;32.616;-115.472;2022-10-13T08:27:26;101243.22;;;45.76;11.28
59407;BME280;45208;32.616;-115.472;2022-10-13T08:29:53;101249.19;;;45.29;12.08
59407;BME280;45208;32.616;-115.472;2022-10-13T08:32:22;101242.63;;;45.72;11.36
59407;BME280;45208;32.616;-115.472;2022-10-13T08:34:49;101244.22;;;45.44;11.50
59407;BME280;45208;32.616;-115.472;2022-10-13T08:37:16;101237.00;;;45.48;11.51
59407;BME280;45208;32.616;-115.472;2022-10-13T08:39:42;101241.47;;;45.64;11.93
59407;BME280;45208;32.616;-115.472;2022-10-13T08:42:13;101239.88;;;45.63;11.95
59407;BME280;45208;32.616;-115.472;2022-10-13T08:44:41;101249.03;;;45.23;12.30
59407;BME280;45208;32.616;-115.472;2022-10-13T08:49:53;101247.97;;;44.10;12.94
59407;BME280;45208;32.616;-115.472;2022-10-13T08:52:22;101244.94;;;44.05;13.51
59407;BME280;45208;32.616;-115.472;2022-10-13T08:54:50;101235.66;;;44.67;12.98
59407;BME280;45208;32.616;-115.472;2022-10-13T08:57:18;101249.38;;;45.25;12.13
59407;BME280;45208;32.616;-115.472;2022-10-13T08:59:45;101257.09;;;45.34;12.25
59407;BME280;45208;32.616;-115.472;2022-10-13T09:02:21;101254.91;;;45.58;11.95
59407;BME280;45208;32.616;-115.472;2022-10-13T09:04:49;101254.94;;;45.43;12.55
59407;BME280;45208;32.616;-115.472;2022-10-13T09:07:18;101246.00;;;45.41;12.23
59407;BME280;45208;32.616;-115.472;2022-10-13T09:09:48;101245.91;;;45.36;12.28
59407;BME280;45208;32.616;-115.472;2022-10-13T09:12:15;101241.56;;;45.26;12.82
59407;BME280;45208;32.616;-115.472;2022-10-13T09:14:41;101245.53;;;45.43;12.30
59407;BME280;45208;32.616;-115.472;2022-10-13T09:17:41;101241.81;;;45.57;12.60
59407;BME280;45208;32.616;-115.472;2022-10-13T09:22:36;101232.78;;;44.67;13.39
59407;BME280;45208;32.616;-115.472;2022-10-13T09:33:17;101230.00;;;44.57;13.14
59407;BME280;45208;32.616;-115.472;2022-10-13T09:35:46;101228.47;;;45.10;12.54
59407;BME280;45208;32.616;-115.472;2022-10-13T09:38:14;101226.31;;;44.81;13.41
59407;BME280;45208;32.616;-115.472;2022-10-13T09:40:41;101243.38;;;44.99;12.71
59407;BME280;45208;32.616;-115.472;2022-10-13T09:43:27;101238.75;;;45.16;12.36
59407;BME280;45208;32.616;-115.472;2022-10-13T09:45:54;101238.03;;;45.22;12.51
59407;BME280;45208;32.616;-115.472;2022-10-13T09:48:24;101237.84;;;45.10;12.39
59407;BME280;45208;32.616;-115.472;2022-10-13T09:50:52;101230.47;;;44.80;13.11
59407;BME280;45208;32.616;-115.472;2022-10-13T09:53:37;101235.47;;;44.94;12.93
59407;BME280;45208;32.616;-115.472;2022-10-13T09:56:09;101231.72;;;45.17;12.90
59407;BME280;45208;32.616;-115.472;2022-10-13T09:58:37;101220.03;;;45.06;12.39
59407;BME280;45208;32.616;-115.472;2022-10-13T10:01:08;101220.72;;;44.63;12.71
59407;BME280;45208;32.616;-115.472;2022-10-13T10:03:35;101220.84;;;44.20;13.51
59407;BME280;45208;32.616;-115.472;2022-10-13T10:06:06;101220.34;;;44.70;13.27
59407;BME280;45208;32.616;-115.472;2022-10-13T10:14:11;101225.72;;;44.77;12.75
59407;BME280;45208;32.616;-115.472;2022-10-13T10:16:45;101215.97;;;44.59;13.42
59407;BME280;45208;32.616;-115.472;2022-10-13T10:24:29;101215.09;;;44.92;13.04
59407;BME280;45208;32.616;-115.472;2022-10-13T10:37:42;101211.22;;;44.95;13.10
59407;BME280;45208;32.616;-115.472;2022-10-13T10:45:16;101205.19;;;45.23;12.53
59407;BME280;45208;32.616;-115.472;2022-10-13T10:47:45;101205.59;;;45.15;12.46
59407;BME280;45208;32.616;-115.472;2022-10-13T10:50:15;101207.09;;;45.11;12.92
59407;BME280;45208;32.616;-115.472;2022-10-13T11:00:50;101199.25;;;44.97;12.46
59407;BME280;45208;32.616;-115.472;2022-10-13T11:03:23;101205.19;;;44.93;13.09
59407;BME280;45208;32.616;-115.472;2022-10-13T11:11:27;101207.47;;;44.89;12.99
59407;BME280;45208;32.616;-115.472;2022-10-13T11:13:59;101204.78;;;45.00;12.60
59407;BME280;45208;32.616;-115.472;2022-10-13T11:16:27;101204.19;;;44.96;12.45
59407;BME280;45208;32.616;-115.472;2022-10-13T11:18:55;101202.81;;;44.92;12.59
59407;BME280;45208;32.616;-115.472;2022-10-13T11:21:28;101206.38;;;44.63;13.03
59407;BME280;45208;32.616;-115.472;2022-10-13T11:35:13;101199.88;;;44.38;13.48
59407;BME280;45208;32.616;-115.472;2022-10-13T11:43:01;101191.91;;;44.33;13.38
59407;BME280;45208;32.616;-115.472;2022-10-13T11:48:02;101205.94;;;44.31;13.19
59407;BME280;45208;32.616;-115.472;2022-10-13T11:53:13;101216.03;;;44.26;13.32
59407;BME280;45208;32.616;-115.472;2022-10-13T11:55:58;101218.78;;;44.21;13.23
59407;BME280;45208;32.616;-115.472;2022-10-13T11:58:28;101211.50;;;44.35;13.01
59407;BME280;45208;32.616;-115.472;2022-10-13T12:01:02;101216.22;;;44.23;13.35
59407;BME280;45208;32.616;-115.472;2022-10-13T12:03:32;101214.13;;;44.23;13.19
59407;BME280;45208;32.616;-115.472;2022-10-13T12:06:03;101210.09;;;44.30;13.04
59407;BME280;45208;32.616;-115.472;2022-10-13T12:08:31;101209.19;;;44.24;13.35
59407;BME280;45208;32.616;-115.472;2022-10-13T12:10:58;101221.50;;;44.15;13.36
59407;BME280;45208;32.616;-115.472;2022-10-13T12:13:28;101220.22;;;44.16;13.38
59407;BME280;45208;32.616;-115.472;2022-10-13T12:16:03;101225.53;;;44.09;13.23
59407;BME280;45208;32.616;-115.472;2022-10-13T12:18:32;101226.47;;;44.06;13.60
59407;BME280;45208;32.616;-115.472;2022-10-13T12:21:03;101219.97;;;43.96;13.42
59407;BME280;45208;32.616;-115.472;2022-10-13T12:23:34;101230.31;;;44.03;13.37
59407;BME280;45208;32.616;-115.472;2022-10-13T12:26:00;101228.44;;;43.99;13.44
59407;BME280;45208;32.616;-115.472;2022-10-13T12:28:42;101228.03;;;43.83;13.56
59407;BME280;45208;32.616;-115.472;2022-10-13T12:31:15;101230.72;;;43.86;13.77
59407;BME280;45208;32.616;-115.472;2022-10-13T12:33:42;101234.84;;;43.85;13.45
59407;BME280;45208;32.616;-115.472;2022-10-13T12:36:10;101237.53;;;43.89;13.42
59407;BME280;45208;32.616;-115.472;2022-10-13T12:38:37;101230.03;;;43.91;13.58
59407;BME280;45208;32.616;-115.472;2022-10-13T12:41:06;101237.97;;;43.96;13.28
59407;BME280;45208;32.616;-115.472;2022-10-13T12:43:34;101223.59;;;43.72;13.41
59407;BME280;45208;32.616;-115.472;2022-10-13T12:46:00;101230.75;;;43.77;13.38
59407;BME280;45208;32.616;-115.472;2022-10-13T12:48:27;101227.25;;;43.73;13.48
59407;BME280;45208;32.616;-115.472;2022-10-13T12:50:53;101230.63;;;43.71;13.53
59407;BME280;45208;32.616;-115.472;2022-10-13T12:53:25;101231.41;;;43.63;13.52
59407;BME280;45208;32.616;-115.472;2022-10-13T12:55:56;101234.16;;;43.48;13.61
59407;BME280;45208;32.616;-115.472;2022-10-13T13:03:22;101240.31;;;43.65;13.60
59407;BME280;45208;32.616;-115.472;2022-10-13T13:06:05;101237.28;;;43.68;13.70
59407;BME280;45208;32.616;-115.472;2022-10-13T13:08:31;101239.34;;;43.68;13.58
59407;BME280;45208;32.616;-115.472;2022-10-13T13:10:58;101237.44;;;43.74;13.84
59407;BME280;45208;32.616;-115.472;2022-10-13T13:13:25;101243.84;;;43.69;13.36
59407;BME280;45208;32.616;-115.472;2022-10-13T13:15:51;101244.78;;;43.57;13.65
59407;BME280;45208;32.616;-115.472;2022-10-13T13:18:32;101241.44;;;43.58;13.58
59407;BME280;45208;32.616;-115.472;2022-10-13T13:21:03;101240.31;;;43.74;13.15
59407;BME280;45208;32.616;-115.472;2022-10-13T13:23:29;101235.50;;;43.80;12.97
59407;BME280;45208;32.616;-115.472;2022-10-13T13:26:04;101249.78;;;43.89;13.16
59407;BME280;45208;32.616;-115.472;2022-10-13T13:28:31;101250.16;;;43.82;13.10
59407;BME280;45208;32.616;-115.472;2022-10-13T13:31:02;101244.41;;;43.82;12.88
59407;BME280;45208;32.616;-115.472;2022-10-13T13:33:28;101242.19;;;43.77;13.20
59407;BME280;45208;32.616;-115.472;2022-10-13T13:35:57;101245.69;;;43.81;12.98
59407;BME280;45208;32.616;-115.472;2022-10-13T13:38:23;101238.84;;;43.79;13.13
59407;BME280;45208;32.616;-115.472;2022-10-13T13:40:49;101246.34;;;43.76;13.18
59407;BME280;45208;32.616;-115.472;2022-10-13T13:43:16;101230.56;;;43.81;12.73
59407;BME280;45208;32.616;-115.472;2022-10-13T13:45:42;101240.59;;;43.76;12.97
59407;BME280;45208;32.616;-115.472;2022-10-13T13:48:10;101246.69;;;43.69;12.94
59407;BME280;45208;32.616;-115.472;2022-10-13T13:50:37;101240.91;;;43.78;12.97
59407;BME280;45208;32.616;-115.472;2022-10-13T13:53:04;101243.34;;;43.70;13.18
59407;BME280;45208;32.616;-115.472;2022-10-13T13:55:30;101248.91;;;43.65;13.10
59407;BME280;45208;32.616;-115.472;2022-10-13T13:57:57;101245.09;;;43.59;13.27
59407;BME280;45208;32.616;-115.472;2022-10-13T14:00:24;101242.22;;;43.68;13.05
59407;BME280;45208;32.616;-115.472;2022-10-13T14:02:53;101236.81;;;43.61;13.30
59407;BME280;45208;32.616;-115.472;2022-10-13T14:05:20;101237.75;;;43.76;13.01
59407;BME280;45208;32.616;-115.472;2022-10-13T14:07:46;101239.78;;;43.85;13.07
59407;BME280;45208;32.616;-115.472;2022-10-13T14:10:12;101237.03;;;43.99;12.87
59407;BME280;45208;32.616;-115.472;2022-10-13T14:12:38;101244.91;;;44.14;13.23